createdAt,value
2022-09-25T00:00:13.571Z,15.56
2022-09-25T00:02:43.715Z,15.54
2022-09-25T00:05:13.804Z,15.49
2022-09-25T00:07:46.508Z,15.46
2022-09-25T00:10:16.555Z,15.47
2022-09-25T00:12:46.605Z,15.42
2022-09-25T00:15:16.566Z,15.35
2022-09-25T00:17:46.609Z,15.28
2022-09-25T00:20:17.028Z,15.29
2022-09-25T00:22:50.215Z,15.33
2022-09-25T00:25:21.342Z,15.31
2022-09-25T00:27:51.781Z,15.25
2022-09-25T00:30:22.127Z,15.20
2022-09-25T00:32:52.211Z,15.16
2022-09-25T00:35:22.242Z,15.10
2022-09-25T00:37:54.912Z,15.11
2022-09-25T00:40:25.005Z,15.11
2022-09-25T00:42:55.100Z,15.09
2022-09-25T00:45:25.412Z,15.09
2022-09-25T00:48:00.457Z,15.07
2022-09-25T00:50:37.750Z,15.07
2022-09-25T00:53:17.529Z,15.03
2022-09-25T00:55:49.160Z,15.03
2022-09-25T00:58:25.954Z,15.01
2022-09-25T01:00:56.842Z,14.99
2022-09-25T01:03:27.553Z,14.94
2022-09-25T01:06:00.431Z,14.88
2022-09-25T01:08:35.225Z,14.86
2022-09-25T01:11:05.426Z,14.83
2022-09-25T01:13:35.859Z,14.78
2022-09-25T01:16:17.365Z,14.75
2022-09-25T01:19:12.901Z,14.72
2022-09-25T01:21:50.997Z,14.70
2022-09-25T01:24:47.845Z,14.66
2022-09-25T01:27:42.065Z,14.62
2022-09-25T01:30:18.326Z,14.62
2022-09-25T01:33:01.338Z,14.61
2022-09-25T01:35:48.642Z,14.59
2022-09-25T01:38:29.887Z,14.57
2022-09-25T01:41:08.465Z,14.58
2022-09-25T01:43:43.223Z,14.60
2022-09-25T01:46:19.939Z,14.58
2022-09-25T01:48:57.505Z,14.58
2022-09-25T01:51:33.523Z,14.59
2022-09-25T01:54:10.919Z,14.59
2022-09-25T01:56:49.002Z,14.60
2022-09-25T01:59:22.717Z,14.61
2022-09-25T02:01:58.649Z,14.59
2022-09-25T02:04:35.282Z,14.61
2022-09-25T02:07:09.743Z,14.64
2022-09-25T02:09:45.910Z,14.65
2022-09-25T02:12:20.962Z,14.68
2022-09-25T02:14:56.205Z,14.69
2022-09-25T02:17:49.784Z,14.69
2022-09-25T02:20:36.537Z,14.68
2022-09-25T02:23:18.890Z,14.68
2022-09-25T02:25:59.641Z,14.70
2022-09-25T02:28:29.809Z,14.73
2022-09-25T02:31:02.196Z,14.74
2022-09-25T02:33:35.336Z,14.72
2022-09-25T02:36:09.902Z,14.73
2022-09-25T02:38:39.969Z,14.74
2022-09-25T02:41:21.940Z,14.76
2022-09-25T02:44:07.211Z,14.78
2022-09-25T02:46:47.432Z,14.79
2022-09-25T02:49:30.384Z,14.79
2022-09-25T02:52:08.978Z,14.80
2022-09-25T02:54:48.444Z,14.74
2022-09-25T02:57:28.601Z,14.74
2022-09-25T03:00:03.810Z,14.74
2022-09-25T03:02:38.322Z,14.71
2022-09-25T03:05:15.609Z,14.72
2022-09-25T03:07:58.223Z,14.74
2022-09-25T03:10:30.433Z,14.71
2022-09-25T03:13:00.549Z,14.69
2022-09-25T03:15:30.579Z,14.68
2022-09-25T03:18:00.644Z,14.67
2022-09-25T03:20:33.222Z,14.71
2022-09-25T03:23:03.305Z,14.71
2022-09-25T03:25:33.273Z,14.68
2022-09-25T03:28:03.746Z,14.62
2022-09-25T03:30:33.959Z,14.61
2022-09-25T03:33:04.099Z,14.54
2022-09-25T03:35:36.741Z,14.51
2022-09-25T03:38:08.361Z,14.48
2022-09-25T03:40:38.501Z,14.41
2022-09-25T03:45:37.608Z,14.38
2022-09-25T03:48:07.707Z,14.37
2022-09-25T03:50:42.072Z,14.27
2022-09-25T03:53:12.123Z,14.22
2022-09-25T03:55:42.529Z,14.20
2022-09-25T03:58:12.771Z,14.18
2022-09-25T04:00:42.812Z,14.16
2022-09-25T04:03:12.832Z,14.14
2022-09-25T04:05:46.483Z,14.09
2022-09-25T04:08:16.580Z,14.07
2022-09-25T04:10:46.603Z,14.02
2022-09-25T04:13:17.166Z,14.00
2022-09-25T04:15:47.204Z,13.98
2022-09-25T04:18:17.170Z,13.97
2022-09-25T04:20:49.797Z,13.97
2022-09-25T04:23:20.444Z,13.99
2022-09-25T04:25:50.471Z,13.99
2022-09-25T04:28:21.602Z,13.95
2022-09-25T04:30:52.406Z,13.93
2022-09-25T04:33:35.258Z,13.94
2022-09-25T04:36:09.160Z,13.94
2022-09-25T04:38:39.275Z,13.98
2022-09-25T04:41:09.714Z,13.98
2022-09-25T04:43:41.007Z,13.99
2022-09-25T04:46:20.139Z,13.99
2022-09-25T04:48:51.852Z,13.98
2022-09-25T04:51:24.507Z,13.96
2022-09-25T04:53:54.571Z,13.96
2022-09-25T04:56:25.096Z,13.97
2022-09-25T04:58:55.409Z,14.00
2022-09-25T05:01:25.548Z,14.02
2022-09-25T05:03:56.178Z,14.05
2022-09-25T05:06:29.686Z,14.05
2022-09-25T05:08:59.723Z,14.06
2022-09-25T05:11:29.719Z,14.08
2022-09-25T05:13:59.703Z,14.09
2022-09-25T05:16:31.006Z,14.10
2022-09-25T05:19:01.975Z,14.09
2022-09-25T05:21:34.786Z,14.09
2022-09-25T05:24:05.602Z,14.11
2022-09-25T05:26:35.658Z,14.13
2022-09-25T05:29:05.871Z,14.16
2022-09-25T05:31:36.820Z,14.17
2022-09-25T05:34:06.807Z,14.17
2022-09-25T05:36:39.488Z,14.22
2022-09-25T05:39:13.606Z,14.30
2022-09-25T05:41:44.610Z,14.30
2022-09-25T05:44:15.044Z,14.32
2022-09-25T05:46:45.334Z,14.33
2022-09-25T05:49:15.445Z,14.39
2022-09-25T05:51:48.531Z,14.43
2022-09-25T05:54:18.619Z,14.48
2022-09-25T05:56:48.624Z,14.47
2022-09-25T05:59:19.152Z,14.48
2022-09-25T06:01:49.597Z,14.53
2022-09-25T06:04:19.706Z,14.57
2022-09-25T06:06:52.667Z,14.56
2022-09-25T06:09:22.726Z,14.59
2022-09-25T06:11:53.601Z,14.60
2022-09-25T06:14:24.694Z,14.57
2022-09-25T06:16:54.828Z,14.59
2022-09-25T06:19:24.810Z,14.58
2022-09-25T06:21:57.684Z,14.58
2022-09-25T06:24:27.907Z,14.60
2022-09-25T06:26:57.979Z,14.66
2022-09-25T06:29:27.967Z,14.73
2022-09-25T06:31:57.967Z,14.80
2022-09-25T06:34:28.456Z,14.89
2022-09-25T06:37:03.571Z,14.98
2022-09-25T06:39:34.383Z,15.09
2022-09-25T06:42:04.767Z,15.21
2022-09-25T06:44:34.831Z,15.31
2022-09-25T06:47:05.085Z,15.40
2022-09-25T06:49:35.169Z,15.50
2022-09-25T06:52:07.923Z,15.65
2022-09-25T06:54:43.189Z,15.77
2022-09-25T06:57:14.301Z,16.01
2022-09-25T06:59:44.365Z,16.29
2022-09-25T07:02:26.898Z,16.52
2022-09-25T07:04:57.128Z,16.63
2022-09-25T07:07:30.607Z,16.74
2022-09-25T07:10:01.355Z,16.79
2022-09-25T07:12:34.265Z,16.94
2022-09-25T07:15:04.353Z,17.01
2022-09-25T07:17:34.877Z,17.11
2022-09-25T07:20:05.517Z,17.30
2022-09-25T07:22:38.183Z,17.20
2022-09-25T07:25:10.117Z,17.25
2022-09-25T07:27:40.280Z,17.44
2022-09-25T07:30:12.798Z,17.43
2022-09-25T07:32:42.851Z,17.45
2022-09-25T07:35:12.966Z,17.44
2022-09-25T07:37:45.544Z,17.43
2022-09-25T07:40:15.707Z,17.36
2022-09-25T07:42:45.830Z,17.35
2022-09-25T07:45:15.829Z,17.35
2022-09-25T07:47:45.806Z,17.43
2022-09-25T07:50:15.966Z,17.57
2022-09-25T07:52:48.644Z,17.71
2022-09-25T07:55:18.916Z,17.91
2022-09-25T07:57:49.513Z,19.57
2022-09-25T08:00:20.813Z,20.19
2022-09-25T08:02:59.780Z,20.30
2022-09-25T08:05:30.810Z,20.16
2022-09-25T08:08:03.889Z,20.47
2022-09-25T08:10:34.168Z,22.41
2022-09-25T08:13:04.343Z,24.35
2022-09-25T08:15:34.425Z,25.63
2022-09-25T08:18:04.522Z,26.39
2022-09-25T08:20:36.185Z,27.43
2022-09-25T08:23:08.889Z,27.68
2022-09-25T08:25:38.936Z,28.11
2022-09-25T08:28:09.058Z,28.85
2022-09-25T08:30:39.217Z,29.51
2022-09-25T08:33:15.414Z,29.06
2022-09-25T08:35:47.062Z,29.55
2022-09-25T08:38:19.736Z,29.91
2022-09-25T08:40:57.830Z,30.11
2022-09-25T08:43:29.832Z,30.20
2022-09-25T08:46:15.937Z,30.34
2022-09-25T08:49:06.353Z,29.56
2022-09-25T08:51:48.341Z,28.23
2022-09-25T08:54:27.687Z,27.70
2022-09-25T08:57:02.867Z,27.86
2022-09-25T08:59:38.318Z,28.49
2022-09-25T09:02:18.038Z,28.31
2022-09-25T09:04:52.031Z,28.76
2022-09-25T09:07:28.599Z,29.03
2022-09-25T09:10:07.542Z,28.59
2022-09-25T09:12:43.300Z,28.72
2022-09-25T09:15:31.165Z,28.92
2022-09-25T09:18:03.223Z,28.47
2022-09-25T09:20:44.494Z,27.48
2022-09-25T09:23:22.649Z,26.19
2022-09-25T09:26:04.984Z,26.51
2022-09-25T09:29:07.284Z,27.21
2022-09-25T09:31:51.923Z,27.80
2022-09-25T09:35:07.146Z,27.60
2022-09-25T09:37:53.194Z,27.91
2022-09-25T09:40:52.297Z,27.94
2022-09-25T09:43:56.531Z,28.27
2022-09-25T09:46:40.511Z,27.94
2022-09-25T09:49:20.627Z,27.06
2022-09-25T09:51:57.191Z,26.30
2022-09-25T09:54:36.033Z,26.03
2022-09-25T09:57:15.132Z,25.50
2022-09-25T09:59:53.301Z,25.52
2022-09-25T10:02:33.921Z,25.60
2022-09-25T10:05:09.568Z,25.75
2022-09-25T10:07:43.313Z,25.68
2022-09-25T10:10:18.376Z,25.94
2022-09-25T10:12:52.199Z,26.27
2022-09-25T10:15:33.180Z,26.79
2022-09-25T10:18:06.594Z,27.15
2022-09-25T10:20:43.930Z,27.67
2022-09-25T10:23:33.319Z,28.37
2022-09-25T10:26:03.338Z,28.66
2022-09-25T10:28:36.930Z,28.96
2022-09-25T10:31:13.066Z,29.13
2022-09-25T10:33:43.316Z,29.05
2022-09-25T10:36:13.578Z,28.98
2022-09-25T10:38:55.275Z,29.25
2022-09-25T10:41:33.263Z,29.40
2022-09-25T10:44:05.112Z,29.56
2022-09-25T10:47:07.220Z,29.79
2022-09-25T10:50:02.318Z,29.72
2022-09-25T10:52:32.661Z,29.31
2022-09-25T10:55:19.225Z,28.66
2022-09-25T10:57:51.562Z,27.84
2022-09-25T11:00:26.750Z,27.47
2022-09-25T11:03:04.132Z,27.91
2022-09-25T11:05:36.644Z,28.60
2022-09-25T11:08:09.564Z,28.46
2022-09-25T11:10:49.027Z,28.27
2022-09-25T11:13:28.359Z,27.95
2022-09-25T11:16:03.644Z,28.11
2022-09-25T11:18:49.898Z,28.49
2022-09-25T11:21:26.067Z,28.90
2022-09-25T11:24:09.909Z,28.79
2022-09-25T11:26:46.219Z,29.04
2022-09-25T11:29:23.342Z,29.37
2022-09-25T11:32:01.301Z,29.26
2022-09-25T11:34:55.061Z,30.42
2022-09-25T11:37:37.056Z,30.55
2022-09-25T11:40:46.737Z,31.96
2022-09-25T11:43:25.964Z,31.59
2022-09-25T11:46:02.892Z,31.15
2022-09-25T11:48:45.816Z,31.26
2022-09-25T11:51:30.241Z,33.22
2022-09-25T11:54:32.590Z,32.72
2022-09-25T11:57:12.274Z,32.19
2022-09-25T12:00:00.273Z,32.58
2022-09-25T12:02:43.972Z,33.27
2022-09-25T12:05:39.921Z,32.48
2022-09-25T12:08:31.310Z,33.51
2022-09-25T12:11:14.443Z,34.82
2022-09-25T12:13:56.773Z,36.08
2022-09-25T12:16:37.172Z,36.75
2022-09-25T12:19:23.703Z,37.21
2022-09-25T12:22:01.785Z,35.98
2022-09-25T12:24:53.535Z,37.01
2022-09-25T12:27:38.298Z,36.98
2022-09-25T12:30:19.938Z,35.56
2022-09-25T12:33:15.517Z,34.25
2022-09-25T12:35:57.020Z,35.83
2022-09-25T12:38:41.440Z,36.78
2022-09-25T12:41:21.823Z,37.52
2022-09-25T12:43:58.665Z,37.71
2022-09-25T12:46:32.697Z,37.83
2022-09-25T12:49:14.187Z,38.04
2022-09-25T12:51:50.908Z,38.29
2022-09-25T12:54:29.524Z,38.53
2022-09-25T12:57:07.352Z,38.65
2022-09-25T12:59:46.623Z,38.69
2022-09-25T13:02:26.656Z,38.06
2022-09-25T13:05:08.169Z,37.80
2022-09-25T13:07:45.437Z,38.26
2022-09-25T13:10:28.206Z,38.39
2022-09-25T13:13:10.701Z,37.66
2022-09-25T13:15:45.246Z,38.16
2022-09-25T13:18:20.382Z,38.49
2022-09-25T13:20:56.156Z,36.48
2022-09-25T13:23:34.413Z,34.11
2022-09-25T13:26:14.370Z,32.43
2022-09-25T13:28:57.324Z,31.08
2022-09-25T13:31:30.367Z,30.07
2022-09-25T13:34:08.348Z,29.45
2022-09-25T13:36:44.748Z,28.84
2022-09-25T13:39:43.919Z,28.03
2022-09-25T13:42:24.757Z,27.36
2022-09-25T13:45:25.999Z,26.74
2022-09-25T13:48:07.962Z,26.15
2022-09-25T13:50:46.965Z,25.70
2022-09-25T13:53:29.610Z,25.20
2022-09-25T13:56:31.410Z,24.64
2022-09-25T13:59:27.227Z,24.32
2022-09-25T14:02:27.352Z,23.99
2022-09-25T14:04:58.760Z,23.72
2022-09-25T14:07:30.764Z,23.44
2022-09-25T14:10:03.721Z,23.30
2022-09-25T14:12:45.112Z,23.11
2022-09-25T14:15:26.914Z,22.95
2022-09-25T14:18:02.317Z,22.79
2022-09-25T14:20:40.827Z,22.66
2022-09-25T14:23:18.023Z,22.55
2022-09-25T14:25:48.135Z,22.47
2022-09-25T14:28:24.870Z,22.41
2022-09-25T14:31:26.412Z,22.34
2022-09-25T14:34:28.336Z,22.20
2022-09-25T14:37:17.628Z,22.11
2022-09-25T14:39:56.872Z,22.00
2022-09-25T14:42:50.287Z,21.85
2022-09-25T14:45:57.833Z,21.69
2022-09-25T14:48:36.558Z,21.38
2022-09-25T14:51:13.016Z,20.92
2022-09-25T14:53:47.380Z,20.19
2022-09-25T14:56:18.128Z,19.80
2022-09-25T14:58:52.406Z,19.46
2022-09-25T15:01:29.759Z,19.14
2022-09-25T15:04:04.819Z,18.72
2022-09-25T15:06:40.670Z,18.43
2022-09-25T15:09:33.109Z,18.15
2022-09-25T15:12:13.039Z,17.87
2022-09-25T15:14:43.143Z,17.49
2022-09-25T15:17:22.150Z,17.30
2022-09-25T15:19:52.457Z,17.26
2022-09-25T15:22:27.498Z,17.43
2022-09-25T15:25:01.443Z,17.62
2022-09-25T15:27:32.578Z,17.74
2022-09-25T15:30:03.572Z,17.90
2022-09-25T15:32:40.804Z,18.09
2022-09-25T15:35:19.868Z,18.17
2022-09-25T15:37:52.753Z,18.23
2022-09-25T15:40:28.782Z,18.64
2022-09-25T15:42:59.932Z,18.57
2022-09-25T15:45:44.069Z,18.46
2022-09-25T15:48:26.873Z,18.42
2022-09-25T15:50:58.882Z,18.44
2022-09-25T15:53:36.263Z,18.42
2022-09-25T15:56:18.607Z,18.45
2022-09-25T15:58:53.098Z,18.44
2022-09-25T16:01:39.595Z,18.31
2022-09-25T16:04:25.525Z,18.28
2022-09-25T16:06:55.672Z,18.25
2022-09-25T16:09:35.202Z,18.21
2022-09-25T16:12:24.113Z,18.19
2022-09-25T16:14:55.238Z,18.18
2022-09-25T16:17:34.826Z,18.17
2022-09-25T16:20:32.466Z,18.14
2022-09-25T16:23:05.628Z,18.09
2022-09-25T16:25:40.599Z,18.06
2022-09-25T16:28:19.566Z,18.03
2022-09-25T16:30:51.784Z,18.01
2022-09-25T16:33:28.494Z,17.96
2022-09-25T16:36:13.002Z,17.89
2022-09-25T16:39:13.428Z,17.81
2022-09-25T16:41:51.124Z,17.75
2022-09-25T16:44:24.414Z,17.66
2022-09-25T16:47:21.680Z,17.54
2022-09-25T16:49:52.230Z,17.46
2022-09-25T16:52:26.007Z,17.35
2022-09-25T16:54:59.906Z,17.26
2022-09-25T16:57:34.930Z,17.17
2022-09-25T17:00:05.790Z,17.13
2022-09-25T17:02:41.415Z,17.05
2022-09-25T17:05:19.024Z,17.04
2022-09-25T17:07:50.770Z,17.01
2022-09-25T17:10:24.340Z,16.97
2022-09-25T17:12:59.121Z,16.94
2022-09-25T17:15:36.236Z,16.84
2022-09-25T17:18:12.777Z,16.79
2022-09-25T17:20:42.894Z,16.87
2022-09-25T17:23:14.247Z,16.93
2022-09-25T17:25:48.112Z,16.97
2022-09-25T17:28:21.447Z,16.96
2022-09-25T17:30:51.603Z,16.95
2022-09-25T17:33:24.697Z,16.93
2022-09-25T17:35:59.211Z,16.93
2022-09-25T17:38:32.323Z,16.88
2022-09-25T17:41:05.766Z,16.85
2022-09-25T17:43:43.242Z,16.85
2022-09-25T17:46:15.023Z,16.77
2022-09-25T17:48:47.908Z,16.75
2022-09-25T17:51:24.931Z,16.77
2022-09-25T17:53:56.230Z,16.79
2022-09-25T17:56:28.372Z,16.73
2022-09-25T17:59:02.232Z,16.76
2022-09-25T18:01:39.047Z,16.83
2022-09-25T18:04:23.107Z,16.81
2022-09-25T18:06:54.031Z,16.83
2022-09-25T18:09:23.848Z,16.82
2022-09-25T18:11:55.246Z,16.75
2022-09-25T18:14:27.927Z,16.69
2022-09-25T18:16:57.986Z,16.76
2022-09-25T18:19:40.460Z,16.75
2022-09-25T18:22:21.914Z,16.68
2022-09-25T18:24:56.935Z,16.74
2022-09-25T18:27:29.607Z,16.76
2022-09-25T18:30:02.353Z,16.72
2022-09-25T18:32:33.210Z,16.70
2022-09-25T18:35:03.083Z,16.61
2022-09-25T18:37:33.225Z,16.50
2022-09-25T18:40:03.690Z,16.56
2022-09-25T18:42:33.757Z,16.55
2022-09-25T18:45:08.114Z,16.52
2022-09-25T18:47:38.241Z,16.40
2022-09-25T18:50:10.420Z,16.20
2022-09-25T18:52:41.042Z,16.04
2022-09-25T18:55:11.559Z,16.01
2022-09-25T18:57:42.834Z,16.03
2022-09-25T19:00:16.429Z,16.08
2022-09-25T19:02:46.640Z,16.15
2022-09-25T19:05:17.539Z,16.21
2022-09-25T19:07:47.343Z,16.25
2022-09-25T19:10:17.429Z,16.27
2022-09-25T19:12:47.763Z,16.32
2022-09-25T19:15:21.226Z,16.34
2022-09-25T19:17:51.345Z,16.40
2022-09-25T19:20:21.358Z,16.37
2022-09-25T19:22:51.389Z,16.37
2022-09-25T19:25:22.645Z,16.41
2022-09-25T19:27:52.989Z,16.43
2022-09-25T19:30:25.747Z,16.46
2022-09-25T19:32:56.084Z,16.50
2022-09-25T19:35:26.373Z,16.49
2022-09-25T19:37:56.487Z,16.53
2022-09-25T19:40:41.441Z,16.53
2022-09-25T19:43:11.572Z,16.30
2022-09-25T19:45:52.147Z,16.20
2022-09-25T19:48:22.881Z,16.14
2022-09-25T19:50:53.648Z,16.09
2022-09-25T19:53:23.712Z,16.06
2022-09-25T19:55:54.564Z,16.00
2022-09-25T19:58:25.881Z,15.73
2022-09-25T20:00:58.710Z,15.66
2022-09-25T20:03:28.814Z,15.57
2022-09-25T20:05:58.934Z,15.49
2022-09-25T20:08:28.946Z,15.49
2022-09-25T20:10:58.962Z,15.64
2022-09-25T20:13:29.648Z,15.65
2022-09-25T20:16:10.801Z,15.53
2022-09-25T20:18:41.403Z,15.57
2022-09-25T20:21:13.953Z,15.68
2022-09-25T20:23:44.230Z,15.70
2022-09-25T20:26:16.848Z,15.71
2022-09-25T20:28:48.034Z,15.69
2022-09-25T20:31:20.785Z,15.65
2022-09-25T20:33:51.317Z,15.54
2022-09-25T20:36:22.155Z,15.47
2022-09-25T20:38:52.353Z,15.37
2022-09-25T20:41:24.253Z,15.40
2022-09-25T20:43:57.457Z,15.49
2022-09-25T20:46:32.741Z,15.36
2022-09-25T20:49:03.766Z,15.40
2022-09-25T20:51:36.918Z,15.49
2022-09-25T20:54:10.961Z,15.44
2022-09-25T20:56:43.930Z,15.50
2022-09-25T20:59:16.216Z,15.53
2022-09-25T21:01:49.409Z,15.45
2022-09-25T21:04:19.978Z,15.48
2022-09-25T21:06:50.099Z,15.58
2022-09-25T21:09:24.138Z,15.67
2022-09-25T21:11:54.826Z,15.67
2022-09-25T21:14:27.333Z,15.65
2022-09-25T21:17:00.145Z,15.79
2022-09-25T21:19:31.875Z,15.90
2022-09-25T21:22:02.037Z,15.80
2022-09-25T21:24:32.099Z,15.83
2022-09-25T21:27:02.149Z,15.88
2022-09-25T21:29:33.912Z,15.87
2022-09-25T21:32:06.737Z,15.82
2022-09-25T21:34:36.757Z,15.81
2022-09-25T21:37:06.813Z,15.73
2022-09-25T21:39:36.799Z,15.61
2022-09-25T21:42:07.335Z,15.47
2022-09-25T21:44:38.243Z,15.42
2022-09-25T21:47:10.749Z,15.39
2022-09-25T21:49:40.922Z,15.45
2022-09-25T21:52:10.982Z,15.63
2022-09-25T21:54:40.990Z,15.68
2022-09-25T21:57:11.008Z,15.71
2022-09-25T21:59:41.525Z,15.75
2022-09-25T22:02:14.741Z,15.84
2022-09-25T22:04:45.666Z,15.77
2022-09-25T22:07:15.495Z,15.69
2022-09-25T22:09:45.678Z,15.53
2022-09-25T22:12:15.744Z,15.47
2022-09-25T22:14:45.755Z,15.49
2022-09-25T22:17:18.382Z,15.53
2022-09-25T22:19:48.417Z,15.53
2022-09-25T22:22:18.506Z,15.55
2022-09-25T22:24:48.523Z,15.59
2022-09-25T22:27:18.550Z,15.66
2022-09-25T22:29:48.542Z,15.69
2022-09-25T22:32:21.167Z,15.73
2022-09-25T22:34:51.246Z,15.69
2022-09-25T22:37:21.272Z,15.62
2022-09-25T22:39:51.268Z,15.57
2022-09-25T22:42:21.606Z,15.53
2022-09-25T22:44:51.725Z,15.57
2022-09-25T22:47:24.399Z,15.60
2022-09-25T22:49:54.717Z,15.62
2022-09-25T22:52:24.816Z,15.57
2022-09-25T22:54:54.823Z,15.46
2022-09-25T22:57:24.828Z,15.46
2022-09-25T22:59:54.963Z,15.45
2022-09-25T23:02:27.597Z,15.42
2022-09-25T23:05:00.537Z,15.39
2022-09-25T23:07:32.928Z,15.32
2022-09-25T23:10:03.028Z,15.32
2022-09-25T23:12:33.181Z,15.33
2022-09-25T23:15:03.299Z,15.31
2022-09-25T23:17:35.940Z,15.25
2022-09-25T23:20:06.380Z,15.20
2022-09-25T23:22:36.536Z,15.16
2022-09-25T23:25:07.171Z,15.05
2022-09-25T23:27:37.382Z,14.99
2022-09-25T23:30:08.556Z,15.01
2022-09-25T23:32:41.313Z,15.05
2022-09-25T23:35:12.453Z,15.09
2022-09-25T23:37:42.515Z,15.13
2022-09-25T23:40:15.630Z,15.13
2022-09-25T23:42:46.168Z,15.14
2022-09-25T23:45:16.274Z,15.15
2022-09-25T23:47:48.883Z,15.18
2022-09-25T23:50:19.198Z,15.13
2022-09-25T23:52:49.312Z,15.22
2022-09-25T23:55:19.544Z,15.14
2022-09-25T23:57:49.701Z,15.10
